Airport View

Enter AWOS ICAO identifier for current METAR.

ex. KFNL

CYAM 080500Z 26004KT 1/4SM R12/1200FT/N FG VV001 16/16 A2995 RMK FG8 VIS VRB 1/8 - 3/8 SLP145 DENSITY ALT 900FT

8 Jul 2020 05:45

Other Area AWOS: KANJ - KCIU - KMCD - KERY

TAF AMD CYAM 080226Z 0802/0814 25006KT 1/4SM FG BKN001 TEMPO 0802/0809 4SM BR BKN009 FM080900 34005KT 1/4SM FG OVC001 TEMPO 0809/0812 1/2SM FG OVC004 FM081200 VRB03KT 2SM BR OVC004 BECMG 0812/0814 07005KT P6SM NSW BKN040 RMK NXT FCST BY 080800Z